sensor_id;sensor_type;location;lat;lon;timestamp;pressure;altitude;pressure_sealevel;temperature;humidity
41202;BME280;26936;50.524;8.684;2023-04-03T00:00:42;100481.28;;;4.57;96.36
41202;BME280;26936;50.524;8.684;2023-04-03T00:03:07;100480.84;;;4.55;95.18
41202;BME280;26936;50.524;8.684;2023-04-03T00:05:33;100484.81;;;4.54;94.25
41202;BME280;26936;50.524;8.684;2023-04-03T00:07:58;100486.81;;;4.53;92.65
41202;BME280;26936;50.524;8.684;2023-04-03T00:10:23;100485.97;;;4.49;90.33
41202;BME280;26936;50.524;8.684;2023-04-03T00:12:49;100478.03;;;4.51;89.97
41202;BME280;26936;50.524;8.684;2023-04-03T00:15:15;100482.41;;;4.52;91.46
41202;BME280;26936;50.524;8.684;2023-04-03T00:17:40;100490.75;;;4.49;84.58
41202;BME280;26936;50.524;8.684;2023-04-03T00:20:06;100492.38;;;4.50;84.12
41202;BME280;26936;50.524;8.684;2023-04-03T00:22:32;100488.00;;;4.52;86.06
41202;BME280;26936;50.524;8.684;2023-04-03T00:24:57;100484.44;;;4.52;83.69
41202;BME280;26936;50.524;8.684;2023-04-03T00:27:22;100491.59;;;4.53;83.27
41202;BME280;26936;50.524;8.684;2023-04-03T00:29:47;100490.44;;;4.57;82.53
41202;BME280;26936;50.524;8.684;2023-04-03T00:32:13;100485.63;;;4.54;82.35
41202;BME280;26936;50.524;8.684;2023-04-03T00:34:38;100489.22;;;4.55;82.65
41202;BME280;26936;50.524;8.684;2023-04-03T00:37:04;100489.66;;;4.57;82.85
41202;BME280;26936;50.524;8.684;2023-04-03T00:39:29;100486.09;;;4.60;82.05
41202;BME280;26936;50.524;8.684;2023-04-03T00:41:55;100490.88;;;4.63;81.87
41202;BME280;26936;50.524;8.684;2023-04-03T00:45:21;100483.69;;;4.62;81.54
41202;BME280;26936;50.524;8.684;2023-04-03T00:47:11;100490.06;;;4.62;81.82
41202;BME280;26936;50.524;8.684;2023-04-03T00:49:38;100480.13;;;4.61;81.82
41202;BME280;26936;50.524;8.684;2023-04-03T00:52:05;100487.28;;;4.62;82.18
41202;BME280;26936;50.524;8.684;2023-04-03T00:54:34;100491.31;;;4.65;83.17
41202;BME280;26936;50.524;8.684;2023-04-03T00:57:01;100491.25;;;4.58;82.30
41202;BME280;26936;50.524;8.684;2023-04-03T00:59:30;100494.06;;;4.61;83.08
41202;BME280;26936;50.524;8.684;2023-04-03T01:01:56;100482.94;;;4.68;84.13
41202;BME280;26936;50.524;8.684;2023-04-03T01:04:36;100479.78;;;4.73;84.00
41202;BME280;26936;50.524;8.684;2023-04-03T01:07:06;100479.00;;;4.73;84.37
41202;BME280;26936;50.524;8.684;2023-04-03T01:09:33;100475.06;;;4.77;83.40
41202;BME280;26936;50.524;8.684;2023-04-03T01:12:22;100474.28;;;4.80;83.07
41202;BME280;26936;50.524;8.684;2023-04-03T01:14:55;100476.59;;;4.71;82.70
41202;BME280;26936;50.524;8.684;2023-04-03T01:17:50;100479.41;;;4.71;82.49
41202;BME280;26936;50.524;8.684;2023-04-03T01:25:40;100482.16;;;4.68;83.46
41202;BME280;26936;50.524;8.684;2023-04-03T01:28:08;100475.84;;;4.78;81.70
41202;BME280;26936;50.524;8.684;2023-04-03T01:30:41;100482.16;;;4.68;81.70
41202;BME280;26936;50.524;8.684;2023-04-03T01:33:07;100484.56;;;4.69;82.05
41202;BME280;26936;50.524;8.684;2023-04-03T01:35:33;100487.63;;;4.57;83.52
41202;BME280;26936;50.524;8.684;2023-04-03T01:37:58;100488.00;;;4.52;84.04
41202;BME280;26936;50.524;8.684;2023-04-03T01:40:23;100491.13;;;4.47;84.85
41202;BME280;26936;50.524;8.684;2023-04-03T01:42:49;100490.69;;;4.42;85.11
41202;BME280;26936;50.524;8.684;2023-04-03T01:45:14;100497.44;;;4.37;85.62
41202;BME280;26936;50.524;8.684;2023-04-03T01:47:39;100489.47;;;4.39;85.74
41202;BME280;26936;50.524;8.684;2023-04-03T01:50:05;100497.38;;;4.30;85.58
41202;BME280;26936;50.524;8.684;2023-04-03T01:52:30;100498.19;;;4.34;84.41
41202;BME280;26936;50.524;8.684;2023-04-03T01:54:55;100499.78;;;4.32;83.04
41202;BME280;26936;50.524;8.684;2023-04-03T01:57:21;100496.72;;;4.44;81.82
41202;BME280;26936;50.524;8.684;2023-04-03T01:59:46;100507.72;;;4.30;82.42
41202;BME280;26936;50.524;8.684;2023-04-03T02:02:11;100509.69;;;4.26;82.49
41202;BME280;26936;50.524;8.684;2023-04-03T02:04:37;100503.28;;;4.25;81.62
41202;BME280;26936;50.524;8.684;2023-04-03T02:07:03;100505.69;;;4.27;81.72
41202;BME280;26936;50.524;8.684;2023-04-03T02:09:28;100505.22;;;4.18;81.70
41202;BME280;26936;50.524;8.684;2023-04-03T02:11:53;100510.41;;;4.19;82.53
41202;BME280;26936;50.524;8.684;2023-04-03T02:14:19;100511.97;;;4.16;82.00
41202;BME280;26936;50.524;8.684;2023-04-03T02:16:45;100507.94;;;4.10;82.61
41202;BME280;26936;50.524;8.684;2023-04-03T02:19:10;100508.34;;;4.12;82.17
41202;BME280;26936;50.524;8.684;2023-04-03T02:21:35;100501.50;;;4.06;83.16
41202;BME280;26936;50.524;8.684;2023-04-03T02:24:01;100503.13;;;4.07;83.45
41202;BME280;26936;50.524;8.684;2023-04-03T02:26:26;100505.06;;;4.03;83.75
41202;BME280;26936;50.524;8.684;2023-04-03T02:28:51;100511.47;;;4.07;84.26
41202;BME280;26936;50.524;8.684;2023-04-03T02:31:17;100516.63;;;4.05;82.99
41202;BME280;26936;50.524;8.684;2023-04-03T02:33:42;100515.28;;;3.92;83.58
41202;BME280;26936;50.524;8.684;2023-04-03T02:36:08;100518.88;;;3.93;82.50
41202;BME280;26936;50.524;8.684;2023-04-03T02:38:34;100512.47;;;3.89;83.34
41202;BME280;26936;50.524;8.684;2023-04-03T02:41:05;100521.63;;;3.89;82.66
41202;BME280;26936;50.524;8.684;2023-04-03T02:43:30;100521.97;;;3.84;82.32
41202;BME280;26936;50.524;8.684;2023-04-03T02:45:56;100520.72;;;3.82;82.20
41202;BME280;26936;50.524;8.684;2023-04-03T02:48:21;100525.09;;;3.79;82.75
41202;BME280;26936;50.524;8.684;2023-04-03T02:50:47;100524.22;;;3.72;82.68
41202;BME280;26936;50.524;8.684;2023-04-03T02:53:12;100517.78;;;3.68;82.00
41202;BME280;26936;50.524;8.684;2023-04-03T02:55:38;100519.75;;;3.67;82.16
41202;BME280;26936;50.524;8.684;2023-04-03T02:58:03;100522.03;;;3.58;82.44
41202;BME280;26936;50.524;8.684;2023-04-03T03:00:29;100523.91;;;3.51;83.48
41202;BME280;26936;50.524;8.684;2023-04-03T03:02:54;100522.75;;;3.52;82.43
41202;BME280;26936;50.524;8.684;2023-04-03T03:05:19;100522.66;;;3.45;83.67
41202;BME280;26936;50.524;8.684;2023-04-03T03:07:45;100529.63;;;3.32;84.06
41202;BME280;26936;50.524;8.684;2023-04-03T03:10:10;100520.38;;;3.24;84.28
41202;BME280;26936;50.524;8.684;2023-04-03T03:12:35;100521.53;;;3.20;84.38
41202;BME280;26936;50.524;8.684;2023-04-03T03:15:00;100531.63;;;3.05;84.79
41202;BME280;26936;50.524;8.684;2023-04-03T03:17:26;100531.97;;;3.00;85.54
41202;BME280;26936;50.524;8.684;2023-04-03T03:19:51;100536.66;;;2.96;85.42
41202;BME280;26936;50.524;8.684;2023-04-03T03:22:17;100533.28;;;2.84;86.34
41202;BME280;26936;50.524;8.684;2023-04-03T03:24:42;100530.91;;;2.86;86.56
41202;BME280;26936;50.524;8.684;2023-04-03T03:27:07;100538.72;;;2.76;87.12
41202;BME280;26936;50.524;8.684;2023-04-03T03:29:32;100530.19;;;2.66;86.28
41202;BME280;26936;50.524;8.684;2023-04-03T03:31:58;100533.94;;;2.51;87.12
41202;BME280;26936;50.524;8.684;2023-04-03T03:34:23;100543.03;;;2.48;86.93
41202;BME280;26936;50.524;8.684;2023-04-03T03:36:48;100537.78;;;2.43;85.87
41202;BME280;26936;50.524;8.684;2023-04-03T03:39:13;100533.44;;;2.45;85.52
41202;BME280;26936;50.524;8.684;2023-04-03T03:41:39;100532.94;;;2.40;86.04
41202;BME280;26936;50.524;8.684;2023-04-03T03:44:04;100531.28;;;2.35;86.02
41202;BME280;26936;50.524;8.684;2023-04-03T03:46:30;100529.16;;;2.29;85.80
41202;BME280;26936;50.524;8.684;2023-04-03T03:48:55;100530.72;;;2.26;86.10
41202;BME280;26936;50.524;8.684;2023-04-03T03:51:20;100523.50;;;2.22;85.66
41202;BME280;26936;50.524;8.684;2023-04-03T03:53:45;100531.63;;;2.11;85.36
41202;BME280;26936;50.524;8.684;2023-04-03T03:56:11;100533.59;;;2.11;85.55
41202;BME280;26936;50.524;8.684;2023-04-03T03:58:36;100534.97;;;2.20;85.20
41202;BME280;26936;50.524;8.684;2023-04-03T04:01:05;100534.84;;;2.13;84.56
41202;BME280;26936;50.524;8.684;2023-04-03T04:03:31;100538.22;;;2.03;85.57
41202;BME280;26936;50.524;8.684;2023-04-03T04:05:56;100533.25;;;1.93;85.80
41202;BME280;26936;50.524;8.684;2023-04-03T04:08:22;100539.19;;;1.92;85.84
41202;BME280;26936;50.524;8.684;2023-04-03T04:10:47;100541.16;;;1.91;86.32
41202;BME280;26936;50.524;8.684;2023-04-03T04:13:13;100543.00;;;1.84;86.50
41202;BME280;26936;50.524;8.684;2023-04-03T04:15:38;100545.34;;;1.82;86.64
41202;BME280;26936;50.524;8.684;2023-04-03T04:18:03;100544.19;;;1.83;86.46
41202;BME280;26936;50.524;8.684;2023-04-03T04:20:29;100543.28;;;1.79;86.90
41202;BME280;26936;50.524;8.684;2023-04-03T04:22:54;100539.63;;;1.75;87.57
41202;BME280;26936;50.524;8.684;2023-04-03T04:25:19;100547.75;;;1.64;87.80
41202;BME280;26936;50.524;8.684;2023-04-03T04:27:45;100545.50;;;1.70;88.19
41202;BME280;26936;50.524;8.684;2023-04-03T04:30:10;100545.78;;;1.65;88.41
41202;BME280;26936;50.524;8.684;2023-04-03T04:32:36;100544.81;;;1.57;88.47
41202;BME280;26936;50.524;8.684;2023-04-03T04:35:02;100541.69;;;1.59;88.90
41202;BME280;26936;50.524;8.684;2023-04-03T04:37:28;100541.25;;;1.57;89.00
41202;BME280;26936;50.524;8.684;2023-04-03T04:39:54;100549.59;;;1.57;88.95
41202;BME280;26936;50.524;8.684;2023-04-03T04:42:19;100549.06;;;1.51;89.53
41202;BME280;26936;50.524;8.684;2023-04-03T04:44:44;100557.47;;;1.55;90.35
41202;BME280;26936;50.524;8.684;2023-04-03T04:47:10;100561.56;;;1.61;90.40
41202;BME280;26936;50.524;8.684;2023-04-03T04:49:35;100554.13;;;1.65;90.50
41202;BME280;26936;50.524;8.684;2023-04-03T04:52:01;100561.56;;;1.61;90.80
41202;BME280;26936;50.524;8.684;2023-04-03T04:54:26;100557.19;;;1.60;90.39
41202;BME280;26936;50.524;8.684;2023-04-03T04:56:51;100557.59;;;1.62;90.47
41202;BME280;26936;50.524;8.684;2023-04-03T04:59:17;100553.44;;;1.52;91.33
41202;BME280;26936;50.524;8.684;2023-04-03T05:01:42;100559.50;;;1.58;91.29
41202;BME280;26936;50.524;8.684;2023-04-03T05:04:07;100556.00;;;1.61;90.99
41202;BME280;26936;50.524;8.684;2023-04-03T05:06:33;100563.47;;;1.57;91.17
41202;BME280;26936;50.524;8.684;2023-04-03T05:09:00;100559.16;;;1.59;91.07
41202;BME280;26936;50.524;8.684;2023-04-03T05:11:25;100557.56;;;1.58;91.11
41202;BME280;26936;50.524;8.684;2023-04-03T05:13:51;100562.81;;;1.63;91.49
41202;BME280;26936;50.524;8.684;2023-04-03T05:16:16;100573.41;;;1.58;92.23
41202;BME280;26936;50.524;8.684;2023-04-03T05:18:41;100575.53;;;1.64;92.45
41202;BME280;26936;50.524;8.684;2023-04-03T05:21:07;100565.94;;;1.62;92.64
41202;BME280;26936;50.524;8.684;2023-04-03T05:23:32;100574.34;;;1.65;92.33
41202;BME280;26936;50.524;8.684;2023-04-03T05:25:57;100580.78;;;1.69;92.09
41202;BME280;26936;50.524;8.684;2023-04-03T05:28:23;100578.00;;;1.69;92.28
41202;BME280;26936;50.524;8.684;2023-04-03T05:30:58;100582.53;;;1.77;91.88
41202;BME280;26936;50.524;8.684;2023-04-03T05:33:24;100584.50;;;1.77;91.58
41202;BME280;26936;50.524;8.684;2023-04-03T05:35:51;100584.88;;;1.75;92.09
41202;BME280;26936;50.524;8.684;2023-04-03T05:38:17;100589.47;;;1.87;91.30
41202;BME280;26936;50.524;8.684;2023-04-03T05:40:42;100588.88;;;2.16;90.23
41202;BME280;26936;50.524;8.684;2023-04-03T05:43:07;100591.78;;;2.64;88.14
41202;BME280;26936;50.524;8.684;2023-04-03T05:45:33;100593.19;;;3.00;84.52
41202;BME280;26936;50.524;8.684;2023-04-03T05:47:58;100600.88;;;3.62;82.82
41202;BME280;26936;50.524;8.684;2023-04-03T05:50:23;100606.81;;;4.20;80.79
41202;BME280;26936;50.524;8.684;2023-04-03T05:52:49;100597.38;;;4.72;77.56
41202;BME280;26936;50.524;8.684;2023-04-03T05:55:17;100603.72;;;5.09;75.51
41202;BME280;26936;50.524;8.684;2023-04-03T05:57:42;100603.50;;;5.31;72.57
41202;BME280;26936;50.524;8.684;2023-04-03T06:00:11;100606.53;;;5.70;70.78
41202;BME280;26936;50.524;8.684;2023-04-03T06:02:37;100604.50;;;5.64;70.01
41202;BME280;26936;50.524;8.684;2023-04-03T06:05:03;100597.97;;;6.14;70.10
41202;BME280;26936;50.524;8.684;2023-04-03T06:07:28;100607.72;;;5.69;69.75
41202;BME280;26936;50.524;8.684;2023-04-03T06:09:55;100610.50;;;5.66;70.00
41202;BME280;26936;50.524;8.684;2023-04-03T06:12:21;100617.44;;;5.89;71.15
41202;BME280;26936;50.524;8.684;2023-04-03T06:14:46;100613.72;;;5.75;69.03
41202;BME280;26936;50.524;8.684;2023-04-03T06:17:12;100624.34;;;5.44;70.63
41202;BME280;26936;50.524;8.684;2023-04-03T06:19:38;100635.47;;;5.95;68.63
41202;BME280;26936;50.524;8.684;2023-04-03T06:22:03;100629.66;;;6.39;67.51
41202;BME280;26936;50.524;8.684;2023-04-03T06:24:29;100639.56;;;5.54;69.56
41202;BME280;26936;50.524;8.684;2023-04-03T06:26:55;100647.09;;;6.04;68.75
41202;BME280;26936;50.524;8.684;2023-04-03T06:29:21;100647.56;;;6.20;67.25
41202;BME280;26936;50.524;8.684;2023-04-03T06:31:47;100647.16;;;6.15;66.76
41202;BME280;26936;50.524;8.684;2023-04-03T06:34:13;100644.78;;;6.24;67.05
41202;BME280;26936;50.524;8.684;2023-04-03T06:36:39;100632.88;;;6.51;65.40
41202;BME280;26936;50.524;8.684;2023-04-03T06:39:04;100644.59;;;6.99;64.42
41202;BME280;26936;50.524;8.684;2023-04-03T06:41:30;100650.44;;;6.41;66.72
41202;BME280;26936;50.524;8.684;2023-04-03T06:43:55;100656.88;;;6.45;65.86
41202;BME280;26936;50.524;8.684;2023-04-03T06:46:23;100654.63;;;7.14;63.23
41202;BME280;26936;50.524;8.684;2023-04-03T06:48:49;100657.34;;;6.75;63.94
41202;BME280;26936;50.524;8.684;2023-04-03T06:51:28;100667.41;;;7.68;61.43
41202;BME280;26936;50.524;8.684;2023-04-03T06:53:56;100674.25;;;7.42;61.63
41202;BME280;26936;50.524;8.684;2023-04-03T06:56:22;100678.25;;;7.27;61.69
41202;BME280;26936;50.524;8.684;2023-04-03T06:58:48;100676.91;;;8.19;59.64
41202;BME280;26936;50.524;8.684;2023-04-03T07:01:16;100678.91;;;8.19;59.30
41202;BME280;26936;50.524;8.684;2023-04-03T07:03:41;100686.19;;;8.02;59.18
41202;BME280;26936;50.524;8.684;2023-04-03T07:06:08;100695.56;;;8.79;58.24
41202;BME280;26936;50.524;8.684;2023-04-03T07:08:34;100692.41;;;8.66;58.37
41202;BME280;26936;50.524;8.684;2023-04-03T07:11:00;100691.09;;;8.88;55.73
41202;BME280;26936;50.524;8.684;2023-04-03T07:13:26;100695.91;;;8.84;56.61
41202;BME280;26936;50.524;8.684;2023-04-03T07:15:51;100699.38;;;8.34;57.89
41202;BME280;26936;50.524;8.684;2023-04-03T07:18:17;100698.16;;;8.24;58.62
41202;BME280;26936;50.524;8.684;2023-04-03T07:20:43;100704.19;;;8.15;59.27
41202;BME280;26936;50.524;8.684;2023-04-03T07:23:08;100707.41;;;8.00;58.45
41202;BME280;26936;50.524;8.684;2023-04-03T07:25:34;100706.97;;;8.22;57.67
41202;BME280;26936;50.524;8.684;2023-04-03T07:27:59;100712.16;;;6.80;59.79
41202;BME280;26936;50.524;8.684;2023-04-03T07:30:25;100709.78;;;6.93;59.86
41202;BME280;26936;50.524;8.684;2023-04-03T07:32:51;100717.84;;;7.12;60.46
41202;BME280;26936;50.524;8.684;2023-04-03T07:35:16;100715.50;;;7.49;59.29
41202;BME280;26936;50.524;8.684;2023-04-03T07:37:42;100724.66;;;7.11;59.12
41202;BME280;26936;50.524;8.684;2023-04-03T07:40:07;100714.28;;;7.71;58.98
41202;BME280;26936;50.524;8.684;2023-04-03T07:42:33;100724.16;;;8.53;58.75
41202;BME280;26936;50.524;8.684;2023-04-03T07:45:00;100725.19;;;8.90;55.89
41202;BME280;26936;50.524;8.684;2023-04-03T07:47:25;100719.47;;;10.10;52.53
41202;BME280;26936;50.524;8.684;2023-04-03T07:49:51;100711.16;;;9.93;53.14
41202;BME280;26936;50.524;8.684;2023-04-03T07:52:16;100715.06;;;10.09;52.53
41202;BME280;26936;50.524;8.684;2023-04-03T07:54:41;100721.78;;;11.16;49.76
41202;BME280;26936;50.524;8.684;2023-04-03T07:57:07;100719.97;;;12.05;48.14
41202;BME280;26936;50.524;8.684;2023-04-03T07:59:32;100723.16;;;11.58;47.46
41202;BME280;26936;50.524;8.684;2023-04-03T08:01:58;100734.41;;;10.00;51.17
41202;BME280;26936;50.524;8.684;2023-04-03T08:04:23;100725.75;;;8.54;54.35
41202;BME280;26936;50.524;8.684;2023-04-03T08:06:49;100740.72;;;7.56;57.93
41202;BME280;26936;50.524;8.684;2023-04-03T08:09:16;100735.91;;;7.84;57.86
41202;BME280;26936;50.524;8.684;2023-04-03T08:11:41;100735.63;;;8.86;56.57
41202;BME280;26936;50.524;8.684;2023-04-03T08:14:07;100733.47;;;10.17;53.06
41202;BME280;26936;50.524;8.684;2023-04-03T08:16:32;100735.22;;;9.53;52.90
41202;BME280;26936;50.524;8.684;2023-04-03T08:18:57;100738.19;;;9.32;52.90
41202;BME280;26936;50.524;8.684;2023-04-03T08:21:23;100734.91;;;8.68;53.41
41202;BME280;26936;50.524;8.684;2023-04-03T08:23:49;100730.44;;;8.81;55.60
41202;BME280;26936;50.524;8.684;2023-04-03T08:26:18;100729.06;;;9.10;54.56
41202;BME280;26936;50.524;8.684;2023-04-03T08:28:44;100734.72;;;9.69;53.64
41202;BME280;26936;50.524;8.684;2023-04-03T08:31:11;100738.69;;;9.71;52.98
41202;BME280;26936;50.524;8.684;2023-04-03T08:33:38;100731.28;;;9.91;51.59
41202;BME280;26936;50.524;8.684;2023-04-03T08:36:07;100733.59;;;9.59;51.30
41202;BME280;26936;50.524;8.684;2023-04-03T08:38:33;100729.88;;;9.11;52.03
41202;BME280;26936;50.524;8.684;2023-04-03T08:41:35;100736.47;;;8.83;52.87
41202;BME280;26936;50.524;8.684;2023-04-03T08:44:23;100735.59;;;9.00;53.48
41202;BME280;26936;50.524;8.684;2023-04-03T08:49:39;100734.91;;;9.92;49.49
41202;BME280;26936;50.524;8.684;2023-04-03T08:52:10;100744.56;;;9.39;50.26
41202;BME280;26936;50.524;8.684;2023-04-03T08:54:54;100739.97;;;9.05;50.03
41202;BME280;26936;50.524;8.684;2023-04-03T08:57:35;100738.00;;;8.98;49.69
41202;BME280;26936;50.524;8.684;2023-04-03T09:00:09;100736.03;;;8.88;50.21
41202;BME280;26936;50.524;8.684;2023-04-03T09:02:49;100732.50;;;9.42;50.72
41202;BME280;26936;50.524;8.684;2023-04-03T09:05:18;100739.25;;;9.52;50.00
41202;BME280;26936;50.524;8.684;2023-04-03T09:07:51;100740.97;;;9.39;51.97
41202;BME280;26936;50.524;8.684;2023-04-03T09:10:26;100745.63;;;9.59;48.30
41202;BME280;26936;50.524;8.684;2023-04-03T09:13:06;100745.59;;;9.63;47.61
41202;BME280;26936;50.524;8.684;2023-04-03T09:15:34;100753.72;;;8.82;49.29
41202;BME280;26936;50.524;8.684;2023-04-03T09:18:20;100750.50;;;10.00;47.31
41202;BME280;26936;50.524;8.684;2023-04-03T09:20:49;100745.03;;;9.27;48.09
41202;BME280;26936;50.524;8.684;2023-04-03T09:23:19;100746.03;;;9.58;48.59
41202;BME280;26936;50.524;8.684;2023-04-03T09:25:46;100735.59;;;10.43;46.80
41202;BME280;26936;50.524;8.684;2023-04-03T09:28:12;100737.69;;;11.30;43.96
41202;BME280;26936;50.524;8.684;2023-04-03T09:30:38;100740.19;;;11.24;44.97
41202;BME280;26936;50.524;8.684;2023-04-03T09:33:04;100734.44;;;11.31;45.19
41202;BME280;26936;50.524;8.684;2023-04-03T09:35:32;100741.47;;;11.20;44.35
41202;BME280;26936;50.524;8.684;2023-04-03T09:40:40;100730.78;;;10.03;46.14
41202;BME280;26936;50.524;8.684;2023-04-03T09:43:26;100732.84;;;11.04;44.83
41202;BME280;26936;50.524;8.684;2023-04-03T09:45:52;100737.41;;;10.27;45.93
41202;BME280;26936;50.524;8.684;2023-04-03T09:48:25;100729.09;;;10.13;46.80
41202;BME280;26936;50.524;8.684;2023-04-03T09:53:32;100725.41;;;10.56;45.82
41202;BME280;26936;50.524;8.684;2023-04-03T09:55:59;100734.38;;;10.44;46.14
41202;BME280;26936;50.524;8.684;2023-04-03T10:01:00;100721.56;;;11.04;43.52
41202;BME280;26936;50.524;8.684;2023-04-03T10:03:33;100717.75;;;10.20;43.05
41202;BME280;26936;50.524;8.684;2023-04-03T10:06:00;100726.25;;;9.14;46.23
41202;BME280;26936;50.524;8.684;2023-04-03T10:08:28;100733.41;;;8.39;48.17
41202;BME280;26936;50.524;8.684;2023-04-03T10:13:49;100724.13;;;9.83;46.93
41202;BME280;26936;50.524;8.684;2023-04-03T10:16:18;100720.31;;;9.56;45.06
41202;BME280;26936;50.524;8.684;2023-04-03T10:18:56;100719.19;;;8.81;44.23
41202;BME280;26936;50.524;8.684;2023-04-03T10:21:40;100729.31;;;8.65;45.63
41202;BME280;26936;50.524;8.684;2023-04-03T10:26:58;100722.81;;;9.47;44.21
41202;BME280;26936;50.524;8.684;2023-04-03T10:32:23;100717.91;;;9.00;43.05
41202;BME280;26936;50.524;8.684;2023-04-03T10:35:02;100718.53;;;9.28;42.17
41202;BME280;26936;50.524;8.684;2023-04-03T10:37:51;100703.19;;;9.36;43.04
41202;BME280;26936;50.524;8.684;2023-04-03T10:40:33;100705.91;;;9.50;43.88
41202;BME280;26936;50.524;8.684;2023-04-03T10:43:20;100700.84;;;9.31;42.92
41202;BME280;26936;50.524;8.684;2023-04-03T10:46:34;100701.31;;;9.23;44.24
41202;BME280;26936;50.524;8.684;2023-04-03T10:51:48;100692.81;;;9.78;42.83
41202;BME280;26936;50.524;8.684;2023-04-03T10:54:23;100695.97;;;10.27;43.40
41202;BME280;26936;50.524;8.684;2023-04-03T10:56:55;100694.94;;;10.78;44.55
41202;BME280;26936;50.524;8.684;2023-04-03T10:59:37;100693.63;;;10.52;43.36
41202;BME280;26936;50.524;8.684;2023-04-03T11:04:55;100681.63;;;10.48;41.66
41202;BME280;26936;50.524;8.684;2023-04-03T11:07:26;100664.56;;;11.19;39.96
41202;BME280;26936;50.524;8.684;2023-04-03T11:09:56;100676.22;;;10.61;39.88
41202;BME280;26936;50.524;8.684;2023-04-03T11:12:43;100678.00;;;10.48;39.26
41202;BME280;26936;50.524;8.684;2023-04-03T11:15:16;100682.22;;;9.92;39.53
41202;BME280;26936;50.524;8.684;2023-04-03T11:17:51;100679.47;;;8.83;40.54
41202;BME280;26936;50.524;8.684;2023-04-03T11:20:23;100669.81;;;9.42;40.30
41202;BME280;26936;50.524;8.684;2023-04-03T11:23:24;100664.72;;;9.74;42.20
41202;BME280;26936;50.524;8.684;2023-04-03T11:25:53;100666.28;;;9.79;43.56
41202;BME280;26936;50.524;8.684;2023-04-03T11:28:20;100675.19;;;10.14;41.94
41202;BME280;26936;50.524;8.684;2023-04-03T11:31:01;100656.13;;;9.92;42.83
41202;BME280;26936;50.524;8.684;2023-04-03T11:33:44;100652.16;;;10.86;44.15
41202;BME280;26936;50.524;8.684;2023-04-03T11:36:30;100650.16;;;11.37;41.37
41202;BME280;26936;50.524;8.684;2023-04-03T11:39:07;100652.22;;;10.19;43.74
41202;BME280;26936;50.524;8.684;2023-04-03T11:41:35;100653.16;;;9.14;42.01
41202;BME280;26936;50.524;8.684;2023-04-03T11:44:06;100654.81;;;8.36;43.62
41202;BME280;26936;50.524;8.684;2023-04-03T11:46:54;100655.97;;;8.52;41.37
41202;BME280;26936;50.524;8.684;2023-04-03T11:49:53;100647.47;;;8.66;42.67
41202;BME280;26936;50.524;8.684;2023-04-03T12:13:41;100629.19;;;8.34;44.15
41202;BME280;26936;50.524;8.684;2023-04-03T12:16:19;100622.28;;;8.49;46.24
41202;BME280;26936;50.524;8.684;2023-04-03T12:18:56;100617.19;;;8.26;46.23
41202;BME280;26936;50.524;8.684;2023-04-03T12:29:43;100613.94;;;8.38;49.19
41202;BME280;26936;50.524;8.684;2023-04-03T12:35:10;100609.16;;;8.21;47.46
41202;BME280;26936;50.524;8.684;2023-04-03T12:46:12;100608.81;;;7.98;47.91
41202;BME280;26936;50.524;8.684;2023-04-03T12:51:51;100610.44;;;7.95;46.82
41202;BME280;26936;50.524;8.684;2023-04-03T12:54:19;100604.91;;;7.64;45.74
41202;BME280;26936;50.524;8.684;2023-04-03T12:56:47;100604.53;;;7.51;48.22
41202;BME280;26936;50.524;8.684;2023-04-03T12:59:24;100588.16;;;7.18;47.09
41202;BME280;26936;50.524;8.684;2023-04-03T13:01:54;100602.56;;;7.38;47.85
41202;BME280;26936;50.524;8.684;2023-04-03T13:04:20;100599.34;;;7.39;47.89
41202;BME280;26936;50.524;8.684;2023-04-03T13:06:45;100585.75;;;7.48;48.22
41202;BME280;26936;50.524;8.684;2023-04-03T13:09:23;100581.38;;;7.23;48.63
41202;BME280;26936;50.524;8.684;2023-04-03T13:12:01;100583.34;;;7.47;48.60
41202;BME280;26936;50.524;8.684;2023-04-03T13:14:28;100573.66;;;7.65;47.18
41202;BME280;26936;50.524;8.684;2023-04-03T13:19:22;100570.50;;;7.53;47.17
41202;BME280;26936;50.524;8.684;2023-04-03T13:21:49;100586.91;;;7.47;48.43
41202;BME280;26936;50.524;8.684;2023-04-03T13:24:14;100578.91;;;7.46;45.74
41202;BME280;26936;50.524;8.684;2023-04-03T13:26:40;100579.34;;;7.20;47.24
41202;BME280;26936;50.524;8.684;2023-04-03T13:29:14;100578.56;;;7.23;47.42
41202;BME280;26936;50.524;8.684;2023-04-03T13:31:43;100566.09;;;7.55;48.27
41202;BME280;26936;50.524;8.684;2023-04-03T13:36:44;100574.97;;;7.22;48.37
41202;BME280;26936;50.524;8.684;2023-04-03T13:41:38;100569.75;;;7.21;49.24
41202;BME280;26936;50.524;8.684;2023-04-03T13:49:36;100553.72;;;7.42;46.97
41202;BME280;26936;50.524;8.684;2023-04-03T13:52:26;100551.72;;;7.29;47.70
41202;BME280;26936;50.524;8.684;2023-04-03T13:54:59;100544.09;;;7.33;48.01
41202;BME280;26936;50.524;8.684;2023-04-03T13:57:26;100545.72;;;7.20;47.59
41202;BME280;26936;50.524;8.684;2023-04-03T13:59:51;100555.72;;;7.28;48.50
41202;BME280;26936;50.524;8.684;2023-04-03T14:02:29;100544.16;;;7.05;47.71
41202;BME280;26936;50.524;8.684;2023-04-03T14:04:58;100548.16;;;7.04;47.31
41202;BME280;26936;50.524;8.684;2023-04-03T14:07:26;100546.56;;;7.03;47.72
41202;BME280;26936;50.524;8.684;2023-04-03T14:09:52;100536.16;;;7.03;47.62
41202;BME280;26936;50.524;8.684;2023-04-03T14:12:24;100530.13;;;7.29;49.65
41202;BME280;26936;50.524;8.684;2023-04-03T14:14:50;100538.91;;;7.35;47.22
41202;BME280;26936;50.524;8.684;2023-04-03T14:17:18;100530.09;;;7.36;47.85
41202;BME280;26936;50.524;8.684;2023-04-03T14:19:44;100531.72;;;7.20;47.21
41202;BME280;26936;50.524;8.684;2023-04-03T14:22:23;100525.69;;;7.35;48.84
41202;BME280;26936;50.524;8.684;2023-04-03T14:24:50;100516.53;;;7.24;48.22
41202;BME280;26936;50.524;8.684;2023-04-03T14:27:29;100518.88;;;7.47;49.11
41202;BME280;26936;50.524;8.684;2023-04-03T14:29:57;100509.25;;;7.44;47.68
41202;BME280;26936;50.524;8.684;2023-04-03T14:32:23;100507.66;;;7.50;48.48
41202;BME280;26936;50.524;8.684;2023-04-03T14:34:50;100500.81;;;7.51;49.26